sensor_id;sensor_type;location;lat;lon;timestamp;temperature;humidity
69335;SHT31;56477;52.742;15.242;2023-06-22T00:01:28;19.24;91.37
69335;SHT31;56477;52.742;15.242;2023-06-22T00:03:54;19.24;91.28
69335;SHT31;56477;52.742;15.242;2023-06-22T00:06:20;19.15;91.29
69335;SHT31;56477;52.742;15.242;2023-06-22T00:08:45;19.08;91.31
69335;SHT31;56477;52.742;15.242;2023-06-22T00:11:12;19.00;91.41
69335;SHT31;56477;52.742;15.242;2023-06-22T00:13:38;18.97;91.57
69335;SHT31;56477;52.742;15.242;2023-06-22T00:16:04;18.85;91.70
69335;SHT31;56477;52.742;15.242;2023-06-22T00:18:30;18.81;91.96
69335;SHT31;56477;52.742;15.242;2023-06-22T00:20:59;18.78;91.88
69335;SHT31;56477;52.742;15.242;2023-06-22T00:23:25;18.78;92.00
69335;SHT31;56477;52.742;15.242;2023-06-22T00:25:52;18.68;91.88
69335;SHT31;56477;52.742;15.242;2023-06-22T00:28:18;18.61;92.04
69335;SHT31;56477;52.742;15.242;2023-06-22T00:30:44;18.56;92.41
69335;SHT31;56477;52.742;15.242;2023-06-22T00:33:10;18.53;93.35
69335;SHT31;56477;52.742;15.242;2023-06-22T00:35:36;18.56;93.26
69335;SHT31;56477;52.742;15.242;2023-06-22T00:38:02;18.60;93.72
69335;SHT31;56477;52.742;15.242;2023-06-22T00:40:31;18.60;93.77
69335;SHT31;56477;52.742;15.242;2023-06-22T00:42:58;18.63;93.81
69335;SHT31;56477;52.742;15.242;2023-06-22T00:45:25;18.59;93.94
69335;SHT31;56477;52.742;15.242;2023-06-22T00:47:56;18.60;94.23
69335;SHT31;56477;52.742;15.242;2023-06-22T00:50:25;18.60;94.31
69335;SHT31;56477;52.742;15.242;2023-06-22T00:52:53;18.60;94.40
69335;SHT31;56477;52.742;15.242;2023-06-22T00:55:20;18.60;94.48
69335;SHT31;56477;52.742;15.242;2023-06-22T00:57:47;18.64;94.43
69335;SHT31;56477;52.742;15.242;2023-06-22T01:00:15;18.63;94.43
69335;SHT31;56477;52.742;15.242;2023-06-22T01:02:46;18.64;94.59
69335;SHT31;56477;52.742;15.242;2023-06-22T01:05:17;18.66;94.62
69335;SHT31;56477;52.742;15.242;2023-06-22T01:11:16;18.55;94.19
69335;SHT31;56477;52.742;15.242;2023-06-22T01:13:53;18.53;94.24
69335;SHT31;56477;52.742;15.242;2023-06-22T01:16:26;18.40;93.91
69335;SHT31;56477;52.742;15.242;2023-06-22T01:18:55;18.40;94.11
69335;SHT31;56477;52.742;15.242;2023-06-22T01:21:24;18.36;94.22
69335;SHT31;56477;52.742;15.242;2023-06-22T01:26:56;18.30;94.14
69335;SHT31;56477;52.742;15.242;2023-06-22T01:29:26;18.30;94.26
69335;SHT31;56477;52.742;15.242;2023-06-22T01:31:54;18.28;94.06
69335;SHT31;56477;52.742;15.242;2023-06-22T01:34:21;18.32;94.30
69335;SHT31;56477;52.742;15.242;2023-06-22T01:36:49;18.35;94.43
69335;SHT31;56477;52.742;15.242;2023-06-22T01:39:16;18.32;94.60
69335;SHT31;56477;52.742;15.242;2023-06-22T01:41:43;18.30;94.69
69335;SHT31;56477;52.742;15.242;2023-06-22T01:44:09;18.35;94.70
69335;SHT31;56477;52.742;15.242;2023-06-22T01:46:37;18.32;94.69
69335;SHT31;56477;52.742;15.242;2023-06-22T01:49:04;18.36;95.01
69335;SHT31;56477;52.742;15.242;2023-06-22T01:51:31;18.35;95.03
69335;SHT31;56477;52.742;15.242;2023-06-22T01:53:56;18.33;94.95
69335;SHT31;56477;52.742;15.242;2023-06-22T01:56:23;18.30;94.91
69335;SHT31;56477;52.742;15.242;2023-06-22T02:02:01;18.22;94.83
69335;SHT31;56477;52.742;15.242;2023-06-22T02:04:38;18.19;94.99
69335;SHT31;56477;52.742;15.242;2023-06-22T02:07:12;18.12;94.79
69335;SHT31;56477;52.742;15.242;2023-06-22T02:09:38;18.13;94.76
69335;SHT31;56477;52.742;15.242;2023-06-22T02:12:07;18.05;94.41
69335;SHT31;56477;52.742;15.242;2023-06-22T02:14:34;18.02;94.53
69335;SHT31;56477;52.742;15.242;2023-06-22T02:17:01;18.02;94.91
69335;SHT31;56477;52.742;15.242;2023-06-22T02:19:27;17.99;95.11
69335;SHT31;56477;52.742;15.242;2023-06-22T02:21:53;17.99;95.39
69335;SHT31;56477;52.742;15.242;2023-06-22T02:24:19;17.98;95.44
69335;SHT31;56477;52.742;15.242;2023-06-22T02:26:45;17.95;95.05
69335;SHT31;56477;52.742;15.242;2023-06-22T02:29:11;17.97;95.40
69335;SHT31;56477;52.742;15.242;2023-06-22T02:31:37;18.02;95.56
69335;SHT31;56477;52.742;15.242;2023-06-22T02:34:03;18.01;95.19
69335;SHT31;56477;52.742;15.242;2023-06-22T02:36:29;17.95;95.18
69335;SHT31;56477;52.742;15.242;2023-06-22T02:38:56;17.95;95.21
69335;SHT31;56477;52.742;15.242;2023-06-22T02:41:24;17.92;95.38
69335;SHT31;56477;52.742;15.242;2023-06-22T02:43:50;17.92;95.27
69335;SHT31;56477;52.742;15.242;2023-06-22T02:46:16;17.89;95.24
69335;SHT31;56477;52.742;15.242;2023-06-22T02:48:42;17.89;95.14
69335;SHT31;56477;52.742;15.242;2023-06-22T02:51:08;17.85;95.24
69335;SHT31;56477;52.742;15.242;2023-06-22T02:53:34;17.85;95.37
69335;SHT31;56477;52.742;15.242;2023-06-22T02:56:02;17.88;95.26
69335;SHT31;56477;52.742;15.242;2023-06-22T02:58:31;17.84;94.82
69335;SHT31;56477;52.742;15.242;2023-06-22T03:01:07;17.81;94.74
69335;SHT31;56477;52.742;15.242;2023-06-22T03:03:33;17.84;94.70
69335;SHT31;56477;52.742;15.242;2023-06-22T03:05:59;17.81;94.45
69335;SHT31;56477;52.742;15.242;2023-06-22T03:08:26;17.78;94.49
69335;SHT31;56477;52.742;15.242;2023-06-22T03:10:52;17.68;93.92
69335;SHT31;56477;52.742;15.242;2023-06-22T03:13:18;17.66;94.38
69335;SHT31;56477;52.742;15.242;2023-06-22T03:15:44;17.66;94.64
69335;SHT31;56477;52.742;15.242;2023-06-22T03:18:09;17.66;94.47
69335;SHT31;56477;52.742;15.242;2023-06-22T03:20:35;17.68;94.59
69335;SHT31;56477;52.742;15.242;2023-06-22T03:23:01;17.68;94.24
69335;SHT31;56477;52.742;15.242;2023-06-22T03:25:27;17.71;94.26
69335;SHT31;56477;52.742;15.242;2023-06-22T03:27:53;17.71;94.14
69335;SHT31;56477;52.742;15.242;2023-06-22T03:30:19;17.70;94.13
69335;SHT31;56477;52.742;15.242;2023-06-22T03:32:45;17.73;94.17
69335;SHT31;56477;52.742;15.242;2023-06-22T03:35:12;17.71;94.11
69335;SHT31;56477;52.742;15.242;2023-06-22T03:37:39;17.71;93.98
69335;SHT31;56477;52.742;15.242;2023-06-22T03:40:06;17.66;93.84
69335;SHT31;56477;52.742;15.242;2023-06-22T03:42:35;17.66;93.79
69335;SHT31;56477;52.742;15.242;2023-06-22T03:45:03;17.57;93.76
69335;SHT31;56477;52.742;15.242;2023-06-22T03:47:29;17.58;94.07
69335;SHT31;56477;52.742;15.242;2023-06-22T03:49:55;17.60;94.13
69335;SHT31;56477;52.742;15.242;2023-06-22T03:52:23;17.64;94.11
69335;SHT31;56477;52.742;15.242;2023-06-22T03:54:51;17.71;94.00
69335;SHT31;56477;52.742;15.242;2023-06-22T03:57:16;17.77;93.81
69335;SHT31;56477;52.742;15.242;2023-06-22T03:59:42;17.75;93.61
69335;SHT31;56477;52.742;15.242;2023-06-22T04:02:08;17.77;93.60
69335;SHT31;56477;52.742;15.242;2023-06-22T04:04:35;17.75;93.57
69335;SHT31;56477;52.742;15.242;2023-06-22T04:07:00;17.64;93.76
69335;SHT31;56477;52.742;15.242;2023-06-22T04:09:27;17.68;93.76
69335;SHT31;56477;52.742;15.242;2023-06-22T04:11:52;17.67;93.79
69335;SHT31;56477;52.742;15.242;2023-06-22T04:14:18;17.66;93.84
69335;SHT31;56477;52.742;15.242;2023-06-22T04:16:44;17.63;93.92
69335;SHT31;56477;52.742;15.242;2023-06-22T04:19:10;17.63;94.02
69335;SHT31;56477;52.742;15.242;2023-06-22T04:21:42;17.70;94.07
69335;SHT31;56477;52.742;15.242;2023-06-22T04:24:08;17.73;93.96
69335;SHT31;56477;52.742;15.242;2023-06-22T04:26:34;17.79;93.79
69335;SHT31;56477;52.742;15.242;2023-06-22T04:29:04;17.88;93.76
69335;SHT31;56477;52.742;15.242;2023-06-22T04:31:31;17.94;93.56
69335;SHT31;56477;52.742;15.242;2023-06-22T04:33:59;18.01;93.30
69335;SHT31;56477;52.742;15.242;2023-06-22T04:36:41;18.08;93.00
69335;SHT31;56477;52.742;15.242;2023-06-22T04:39:09;18.12;92.96
69335;SHT31;56477;52.742;15.242;2023-06-22T04:41:41;18.24;92.88
69335;SHT31;56477;52.742;15.242;2023-06-22T04:46:39;18.42;92.34
69335;SHT31;56477;52.742;15.242;2023-06-22T04:49:09;18.52;91.85
69335;SHT31;56477;52.742;15.242;2023-06-22T04:51:40;18.60;91.69
69335;SHT31;56477;52.742;15.242;2023-06-22T04:54:07;18.66;91.53
69335;SHT31;56477;52.742;15.242;2023-06-22T04:56:33;18.71;91.33
69335;SHT31;56477;52.742;15.242;2023-06-22T04:59:00;18.73;91.24
69335;SHT31;56477;52.742;15.242;2023-06-22T05:01:26;18.80;91.02
69335;SHT31;56477;52.742;15.242;2023-06-22T05:03:52;18.90;90.56
69335;SHT31;56477;52.742;15.242;2023-06-22T05:06:24;18.94;89.97
69335;SHT31;56477;52.742;15.242;2023-06-22T05:08:54;19.05;88.39
69335;SHT31;56477;52.742;15.242;2023-06-22T05:11:27;19.16;87.92
69335;SHT31;56477;52.742;15.242;2023-06-22T05:13:53;19.22;87.33
69335;SHT31;56477;52.742;15.242;2023-06-22T05:16:20;19.34;86.94
69335;SHT31;56477;52.742;15.242;2023-06-22T05:18:53;19.42;86.50
69335;SHT31;56477;52.742;15.242;2023-06-22T05:21:25;19.53;86.06
69335;SHT31;56477;52.742;15.242;2023-06-22T05:23:52;19.56;85.54
69335;SHT31;56477;52.742;15.242;2023-06-22T05:26:19;19.59;85.78
69335;SHT31;56477;52.742;15.242;2023-06-22T05:28:46;19.61;84.84
69335;SHT31;56477;52.742;15.242;2023-06-22T05:31:14;19.70;84.46
69335;SHT31;56477;52.742;15.242;2023-06-22T05:33:43;19.79;84.14
69335;SHT31;56477;52.742;15.242;2023-06-22T05:36:09;19.89;83.48
69335;SHT31;56477;52.742;15.242;2023-06-22T05:38:36;20.00;82.29
69335;SHT31;56477;52.742;15.242;2023-06-22T05:41:04;20.03;82.14
69335;SHT31;56477;52.742;15.242;2023-06-22T05:43:30;20.07;82.29
69335;SHT31;56477;52.742;15.242;2023-06-22T05:45:56;20.11;81.85
69335;SHT31;56477;52.742;15.242;2023-06-22T05:48:22;20.18;82.07
69335;SHT31;56477;52.742;15.242;2023-06-22T05:50:48;20.24;82.14
69335;SHT31;56477;52.742;15.242;2023-06-22T05:53:15;20.31;81.26
69335;SHT31;56477;52.742;15.242;2023-06-22T05:55:40;20.37;80.10
69335;SHT31;56477;52.742;15.242;2023-06-22T05:58:08;20.41;79.60
69335;SHT31;56477;52.742;15.242;2023-06-22T06:00:34;20.49;79.63
69335;SHT31;56477;52.742;15.242;2023-06-22T06:03:00;20.59;79.82
69335;SHT31;56477;52.742;15.242;2023-06-22T06:05:30;20.62;79.05
69335;SHT31;56477;52.742;15.242;2023-06-22T06:07:57;20.75;78.73
69335;SHT31;56477;52.742;15.242;2023-06-22T06:10:23;20.79;78.74
69335;SHT31;56477;52.742;15.242;2023-06-22T06:12:49;20.80;79.67
69335;SHT31;56477;52.742;15.242;2023-06-22T06:15:14;20.89;78.61
69335;SHT31;56477;52.742;15.242;2023-06-22T06:17:51;20.96;78.09
69335;SHT31;56477;52.742;15.242;2023-06-22T06:20:25;21.03;78.28
69335;SHT31;56477;52.742;15.242;2023-06-22T06:22:52;21.14;77.59
69335;SHT31;56477;52.742;15.242;2023-06-22T06:25:18;21.17;76.77
69335;SHT31;56477;52.742;15.242;2023-06-22T06:27:46;21.26;76.20
69335;SHT31;56477;52.742;15.242;2023-06-22T06:30:13;21.36;76.58
69335;SHT31;56477;52.742;15.242;2023-06-22T06:32:40;21.46;75.75
69335;SHT31;56477;52.742;15.242;2023-06-22T06:35:07;21.48;75.42
69335;SHT31;56477;52.742;15.242;2023-06-22T06:37:38;21.59;75.52
69335;SHT31;56477;52.742;15.242;2023-06-22T06:40:05;21.68;75.13
69335;SHT31;56477;52.742;15.242;2023-06-22T06:42:34;21.64;73.77
69335;SHT31;56477;52.742;15.242;2023-06-22T06:45:00;21.68;74.00
69335;SHT31;56477;52.742;15.242;2023-06-22T06:47:26;21.81;74.50
69335;SHT31;56477;52.742;15.242;2023-06-22T06:49:52;21.95;73.47
69335;SHT31;56477;52.742;15.242;2023-06-22T06:52:18;22.02;73.32
69335;SHT31;56477;52.742;15.242;2023-06-22T06:54:45;22.19;73.70
69335;SHT31;56477;52.742;15.242;2023-06-22T06:57:11;22.25;72.38
69335;SHT31;56477;52.742;15.242;2023-06-22T06:59:39;22.36;71.67
69335;SHT31;56477;52.742;15.242;2023-06-22T07:02:05;22.35;71.02
69335;SHT31;56477;52.742;15.242;2023-06-22T07:04:30;22.30;70.09
69335;SHT31;56477;52.742;15.242;2023-06-22T07:07:00;22.40;69.82
69335;SHT31;56477;52.742;15.242;2023-06-22T07:09:26;22.44;69.62
69335;SHT31;56477;52.742;15.242;2023-06-22T07:11:52;22.57;70.05
69335;SHT31;56477;52.742;15.242;2023-06-22T07:14:18;22.65;69.49
69335;SHT31;56477;52.742;15.242;2023-06-22T07:16:44;22.65;66.97
69335;SHT31;56477;52.742;15.242;2023-06-22T07:19:13;22.73;66.34
69335;SHT31;56477;52.742;15.242;2023-06-22T07:21:39;22.88;66.25
69335;SHT31;56477;52.742;15.242;2023-06-22T07:24:06;23.11;66.12
69335;SHT31;56477;52.742;15.242;2023-06-22T07:26:32;23.41;65.52
69335;SHT31;56477;52.742;15.242;2023-06-22T07:28:58;23.89;65.01
69335;SHT31;56477;52.742;15.242;2023-06-22T07:31:25;24.65;62.60
69335;SHT31;56477;52.742;15.242;2023-06-22T07:33:51;25.80;60.20
69335;SHT31;56477;52.742;15.242;2023-06-22T07:36:17;26.71;57.01
69335;SHT31;56477;52.742;15.242;2023-06-22T07:38:43;26.94;54.64
69335;SHT31;56477;52.742;15.242;2023-06-22T07:41:09;27.93;53.14
69335;SHT31;56477;52.742;15.242;2023-06-22T07:43:35;28.24;52.81
69335;SHT31;56477;52.742;15.242;2023-06-22T07:46:03;29.29;50.75
69335;SHT31;56477;52.742;15.242;2023-06-22T07:48:29;29.33;48.17
69335;SHT31;56477;52.742;15.242;2023-06-22T07:50:55;28.99;49.42
69335;SHT31;56477;52.742;15.242;2023-06-22T07:53:22;29.02;49.62
69335;SHT31;56477;52.742;15.242;2023-06-22T07:55:49;29.06;49.40
69335;SHT31;56477;52.742;15.242;2023-06-22T07:58:15;29.30;48.06
69335;SHT31;56477;52.742;15.242;2023-06-22T08:00:46;29.51;46.74
69335;SHT31;56477;52.742;15.242;2023-06-22T08:03:12;29.95;46.86
69335;SHT31;56477;52.742;15.242;2023-06-22T08:05:39;30.30;45.33
69335;SHT31;56477;52.742;15.242;2023-06-22T08:08:05;30.40;45.98
69335;SHT31;56477;52.742;15.242;2023-06-22T08:10:31;30.49;45.27
69335;SHT31;56477;52.742;15.242;2023-06-22T08:12:57;30.55;45.09
69335;SHT31;56477;52.742;15.242;2023-06-22T08:15:23;30.42;45.06
69335;SHT31;56477;52.742;15.242;2023-06-22T08:17:49;30.30;45.58
69335;SHT31;56477;52.742;15.242;2023-06-22T08:20:15;30.25;44.56
69335;SHT31;56477;52.742;15.242;2023-06-22T08:22:41;30.33;45.62
69335;SHT31;56477;52.742;15.242;2023-06-22T08:25:08;30.77;45.04
69335;SHT31;56477;52.742;15.242;2023-06-22T08:27:35;30.60;45.30
69335;SHT31;56477;52.742;15.242;2023-06-22T08:30:01;31.06;43.38
69335;SHT31;56477;52.742;15.242;2023-06-22T08:32:27;30.44;43.46
69335;SHT31;56477;52.742;15.242;2023-06-22T08:34:55;30.71;42.68
69335;SHT31;56477;52.742;15.242;2023-06-22T08:37:21;29.49;44.82
69335;SHT31;56477;52.742;15.242;2023-06-22T08:39:49;29.17;45.73
69335;SHT31;56477;52.742;15.242;2023-06-22T08:42:16;30.33;44.17
69335;SHT31;56477;52.742;15.242;2023-06-22T08:44:42;30.74;41.25
69335;SHT31;56477;52.742;15.242;2023-06-22T08:47:07;30.97;40.80
69335;SHT31;56477;52.742;15.242;2023-06-22T08:49:33;30.99;41.05
69335;SHT31;56477;52.742;15.242;2023-06-22T08:51:59;30.11;40.27
69335;SHT31;56477;52.742;15.242;2023-06-22T08:54:25;30.30;40.31
69335;SHT31;56477;52.742;15.242;2023-06-22T08:56:51;31.02;40.16
69335;SHT31;56477;52.742;15.242;2023-06-22T08:59:17;29.88;41.49
69335;SHT31;56477;52.742;15.242;2023-06-22T09:01:43;30.56;41.69
69335;SHT31;56477;52.742;15.242;2023-06-22T09:04:11;29.58;42.25
69335;SHT31;56477;52.742;15.242;2023-06-22T09:06:37;30.86;41.56
69335;SHT31;56477;52.742;15.242;2023-06-22T09:09:12;31.39;40.73
69335;SHT31;56477;52.742;15.242;2023-06-22T09:11:38;31.52;40.62
69335;SHT31;56477;52.742;15.242;2023-06-22T09:14:04;31.67;40.48
69335;SHT31;56477;52.742;15.242;2023-06-22T09:16:30;31.17;41.83
69335;SHT31;56477;52.742;15.242;2023-06-22T09:18:56;31.48;42.52
69335;SHT31;56477;52.742;15.242;2023-06-22T09:21:21;31.56;41.99
69335;SHT31;56477;52.742;15.242;2023-06-22T09:23:47;31.76;41.65
69335;SHT31;56477;52.742;15.242;2023-06-22T09:26:17;31.85;40.94
69335;SHT31;56477;52.742;15.242;2023-06-22T09:28:43;31.87;41.44
69335;SHT31;56477;52.742;15.242;2023-06-22T09:31:09;31.29;41.94
69335;SHT31;56477;52.742;15.242;2023-06-22T09:33:36;31.66;41.63
69335;SHT31;56477;52.742;15.242;2023-06-22T09:36:05;31.73;42.40
69335;SHT31;56477;52.742;15.242;2023-06-22T09:38:38;31.92;41.60
69335;SHT31;56477;52.742;15.242;2023-06-22T09:41:04;31.61;41.86
69335;SHT31;56477;52.742;15.242;2023-06-22T09:43:32;31.85;41.58
69335;SHT31;56477;52.742;15.242;2023-06-22T09:45:58;31.53;41.96
69335;SHT31;56477;52.742;15.242;2023-06-22T09:48:24;31.55;42.29
69335;SHT31;56477;52.742;15.242;2023-06-22T09:50:49;31.31;42.40
69335;SHT31;56477;52.742;15.242;2023-06-22T09:53:15;31.31;42.26
69335;SHT31;56477;52.742;15.242;2023-06-22T09:55:41;30.16;43.85
69335;SHT31;56477;52.742;15.242;2023-06-22T09:58:08;29.80;44.66
69335;SHT31;56477;52.742;15.242;2023-06-22T10:00:34;29.16;45.83
69335;SHT31;56477;52.742;15.242;2023-06-22T10:03:00;29.67;46.52
69335;SHT31;56477;52.742;15.242;2023-06-22T10:05:26;30.30;45.01
69335;SHT31;56477;52.742;15.242;2023-06-22T10:07:52;29.91;45.17
69335;SHT31;56477;52.742;15.242;2023-06-22T10:10:17;29.60;44.86
69335;SHT31;56477;52.742;15.242;2023-06-22T10:12:54;29.60;45.20
69335;SHT31;56477;52.742;15.242;2023-06-22T10:15:20;29.57;45.98
69335;SHT31;56477;52.742;15.242;2023-06-22T10:17:47;29.60;45.96
69335;SHT31;56477;52.742;15.242;2023-06-22T10:20:13;29.92;45.37
69335;SHT31;56477;52.742;15.242;2023-06-22T10:22:41;29.85;46.30
69335;SHT31;56477;52.742;15.242;2023-06-22T10:25:08;29.86;45.70
69335;SHT31;56477;52.742;15.242;2023-06-22T10:27:34;29.58;46.42
69335;SHT31;56477;52.742;15.242;2023-06-22T10:29:59;29.30;46.62
69335;SHT31;56477;52.742;15.242;2023-06-22T10:32:26;29.49;46.90
69335;SHT31;56477;52.742;15.242;2023-06-22T10:34:53;29.00;45.44
69335;SHT31;56477;52.742;15.242;2023-06-22T10:37:19;29.05;45.15
69335;SHT31;56477;52.742;15.242;2023-06-22T10:39:45;29.10;46.96
69335;SHT31;56477;52.742;15.242;2023-06-22T10:42:12;28.92;46.33
69335;SHT31;56477;52.742;15.242;2023-06-22T10:44:38;29.17;46.40
69335;SHT31;56477;52.742;15.242;2023-06-22T10:47:06;29.51;45.16
69335;SHT31;56477;52.742;15.242;2023-06-22T10:49:32;30.18;44.89
69335;SHT31;56477;52.742;15.242;2023-06-22T10:51:58;31.17;43.87
69335;SHT31;56477;52.742;15.242;2023-06-22T10:54:24;31.92;41.37
69335;SHT31;56477;52.742;15.242;2023-06-22T10:56:50;31.67;39.98
69335;SHT31;56477;52.742;15.242;2023-06-22T10:59:16;32.20;39.00
69335;SHT31;56477;52.742;15.242;2023-06-22T11:01:42;32.14;39.51
69335;SHT31;56477;52.742;15.242;2023-06-22T11:04:08;32.44;38.58
69335;SHT31;56477;52.742;15.242;2023-06-22T11:06:35;32.70;38.87
69335;SHT31;56477;52.742;15.242;2023-06-22T11:09:00;32.74;38.59
69335;SHT31;56477;52.742;15.242;2023-06-22T11:11:26;32.79;37.62
69335;SHT31;56477;52.742;15.242;2023-06-22T11:13:52;33.03;37.44
69335;SHT31;56477;52.742;15.242;2023-06-22T11:16:19;33.42;37.67
69335;SHT31;56477;52.742;15.242;2023-06-22T11:18:44;33.64;37.25
69335;SHT31;56477;52.742;15.242;2023-06-22T11:21:10;33.31;37.01
69335;SHT31;56477;52.742;15.242;2023-06-22T11:23:36;33.29;38.47
69335;SHT31;56477;52.742;15.242;2023-06-22T11:26:02;32.88;38.93
69335;SHT31;56477;52.742;15.242;2023-06-22T11:28:28;32.86;38.64
69335;SHT31;56477;52.742;15.242;2023-06-22T11:30:54;32.03;40.10
69335;SHT31;56477;52.742;15.242;2023-06-22T11:33:20;31.49;40.14
69335;SHT31;56477;52.742;15.242;2023-06-22T11:35:46;30.97;40.87
69335;SHT31;56477;52.742;15.242;2023-06-22T11:38:12;30.46;42.15
69335;SHT31;56477;52.742;15.242;2023-06-22T11:40:38;29.88;43.13
69335;SHT31;56477;52.742;15.242;2023-06-22T11:43:04;29.58;43.90
69335;SHT31;56477;52.742;15.242;2023-06-22T11:45:30;29.41;43.54
69335;SHT31;56477;52.742;15.242;2023-06-22T11:47:56;29.47;43.68
69335;SHT31;56477;52.742;15.242;2023-06-22T11:50:22;29.60;44.64
69335;SHT31;56477;52.742;15.242;2023-06-22T11:52:48;29.67;44.54
69335;SHT31;56477;52.742;15.242;2023-06-22T11:55:14;29.72;43.69
69335;SHT31;56477;52.742;15.242;2023-06-22T11:57:53;29.68;43.92
69335;SHT31;56477;52.742;15.242;2023-06-22T12:00:20;29.91;42.74
69335;SHT31;56477;52.742;15.242;2023-06-22T12:02:46;29.97;43.66
69335;SHT31;56477;52.742;15.242;2023-06-22T12:05:12;30.16;44.25
69335;SHT31;56477;52.742;15.242;2023-06-22T12:07:38;30.35;43.07
69335;SHT31;56477;52.742;15.242;2023-06-22T12:10:04;29.98;42.52
69335;SHT31;56477;52.742;15.242;2023-06-22T12:12:30;30.15;42.17
69335;SHT31;56477;52.742;15.242;2023-06-22T12:14:56;30.09;42.73
69335;SHT31;56477;52.742;15.242;2023-06-22T12:17:22;29.97;42.11
69335;SHT31;56477;52.742;15.242;2023-06-22T12:19:48;29.86;44.12
69335;SHT31;56477;52.742;15.242;2023-06-22T12:22:15;29.77;43.30
69335;SHT31;56477;52.742;15.242;2023-06-22T12:24:41;29.77;42.95
69335;SHT31;56477;52.742;15.242;2023-06-22T12:27:07;29.86;42.82
69335;SHT31;56477;52.742;15.242;2023-06-22T12:29:33;29.85;43.13
69335;SHT31;56477;52.742;15.242;2023-06-22T12:31:58;29.70;44.31
69335;SHT31;56477;52.742;15.242;2023-06-22T12:34:25;29.80;44.59
69335;SHT31;56477;52.742;15.242;2023-06-22T12:36:50;29.77;43.54
69335;SHT31;56477;52.742;15.242;2023-06-22T12:39:16;29.14;44.27
69335;SHT31;56477;52.742;15.242;2023-06-22T12:41:42;29.47;44.54
69335;SHT31;56477;52.742;15.242;2023-06-22T12:44:08;29.67;45.80
69335;SHT31;56477;52.742;15.242;2023-06-22T12:46:34;29.81;44.85
69335;SHT31;56477;52.742;15.242;2023-06-22T12:49:04;29.82;44.96
69335;SHT31;56477;52.742;15.242;2023-06-22T12:51:30;29.58;44.80
69335;SHT31;56477;52.742;15.242;2023-06-22T12:53:56;29.67;43.72
69335;SHT31;56477;52.742;15.242;2023-06-22T12:56:22;30.29;43.67
69335;SHT31;56477;52.742;15.242;2023-06-22T12:58:48;30.95;42.18
69335;SHT31;56477;52.742;15.242;2023-06-22T13:01:14;31.31;40.11
69335;SHT31;56477;52.742;15.242;2023-06-22T13:03:41;31.73;40.47
69335;SHT31;56477;52.742;15.242;2023-06-22T13:06:07;31.94;40.01
69335;SHT31;56477;52.742;15.242;2023-06-22T13:08:33;31.97;39.80
69335;SHT31;56477;52.742;15.242;2023-06-22T13:10:59;31.87;40.47
69335;SHT31;56477;52.742;15.242;2023-06-22T13:13:25;31.89;39.34
69335;SHT31;56477;52.742;15.242;2023-06-22T13:15:53;31.29;38.71
69335;SHT31;56477;52.742;15.242;2023-06-22T13:18:19;31.24;40.28
69335;SHT31;56477;52.742;15.242;2023-06-22T13:20:45;29.80;40.97
69335;SHT31;56477;52.742;15.242;2023-06-22T13:23:12;30.23;41.17
69335;SHT31;56477;52.742;15.242;2023-06-22T13:25:39;30.36;40.98
69335;SHT31;56477;52.742;15.242;2023-06-22T13:28:05;30.66;41.07
69335;SHT31;56477;52.742;15.242;2023-06-22T13:30:30;31.07;41.17
69335;SHT31;56477;52.742;15.242;2023-06-22T13:32:57;30.43;39.82
69335;SHT31;56477;52.742;15.242;2023-06-22T13:35:23;30.91;40.93
69335;SHT31;56477;52.742;15.242;2023-06-22T13:37:49;31.21;40.88
69335;SHT31;56477;52.742;15.242;2023-06-22T13:40:15;31.45;40.95
69335;SHT31;56477;52.742;15.242;2023-06-22T13:42:41;31.52;40.33
69335;SHT31;56477;52.742;15.242;2023-06-22T13:45:07;31.62;40.01
69335;SHT31;56477;52.742;15.242;2023-06-22T13:47:34;31.61;41.21
69335;SHT31;56477;52.742;15.242;2023-06-22T13:49:59;31.56;41.44
69335;SHT31;56477;52.742;15.242;2023-06-22T13:52:26;30.80;41.19
69335;SHT31;56477;52.742;15.242;2023-06-22T13:54:51;30.67;42.35
69335;SHT31;56477;52.742;15.242;2023-06-22T13:57:17;30.86;42.64
69335;SHT31;56477;52.742;15.242;2023-06-22T13:59:43;30.97;42.11
69335;SHT31;56477;52.742;15.242;2023-06-22T14:02:09;30.81;41.79
69335;SHT31;56477;52.742;15.242;2023-06-22T14:04:35;30.81;41.76
69335;SHT31;56477;52.742;15.242;2023-06-22T14:07:01;30.53;42.05
69335;SHT31;56477;52.742;15.242;2023-06-22T14:09:27;30.66;43.11
69335;SHT31;56477;52.742;15.242;2023-06-22T14:11:54;30.84;41.82
69335;SHT31;56477;52.742;15.242;2023-06-22T14:14:21;30.81;42.19
69335;SHT31;56477;52.742;15.242;2023-06-22T14:16:47;30.98;41.69
69335;SHT31;56477;52.742;15.242;2023-06-22T14:19:17;31.12;41.27
69335;SHT31;56477;52.742;15.242;2023-06-22T14:21:44;31.24;41.85
69335;SHT31;56477;52.742;15.242;2023-06-22T14:24:10;31.28;41.58
69335;SHT31;56477;52.742;15.242;2023-06-22T14:26:35;31.17;41.25
69335;SHT31;56477;52.742;15.242;2023-06-22T14:29:01;31.36;41.90
69335;SHT31;56477;52.742;15.242;2023-06-22T14:31:27;31.35;41.82
69335;SHT31;56477;52.742;15.242;2023-06-22T14:33:55;31.38;41.75
69335;SHT31;56477;52.742;15.242;2023-06-22T14:36:21;31.39;41.41
69335;SHT31;56477;52.742;15.242;2023-06-22T14:38:47;31.21;41.09
69335;SHT31;56477;52.742;15.242;2023-06-22T14:41:14;31.17;41.29
69335;SHT31;56477;52.742;15.242;2023-06-22T14:43:46;31.14;42.13
69335;SHT31;56477;52.742;15.242;2023-06-22T14:46:14;30.92;42.11
69335;SHT31;56477;52.742;15.242;2023-06-22T14:48:41;30.86;41.87
69335;SHT31;56477;52.742;15.242;2023-06-22T14:51:08;30.97;42.20
69335;SHT31;56477;52.742;15.242;2023-06-22T14:53:34;30.95;42.54
69335;SHT31;56477;52.742;15.242;2023-06-22T14:56:01;30.81;41.39
69335;SHT31;56477;52.742;15.242;2023-06-22T14:58:31;30.60;41.83
69335;SHT31;56477;52.742;15.242;2023-06-22T15:01:04;30.28;42.37
69335;SHT31;56477;52.742;15.242;2023-06-22T15:03:31;29.97;42.68
69335;SHT31;56477;52.742;15.242;2023-06-22T15:05:58;29.85;43.52
69335;SHT31;56477;52.742;15.242;2023-06-22T15:08:24;29.81;44.23
69335;SHT31;56477;52.742;15.242;2023-06-22T15:10:51;29.88;42.82
69335;SHT31;56477;52.742;15.242;2023-06-22T15:13:18;29.98;43.88
69335;SHT31;56477;52.742;15.242;2023-06-22T15:15:46;30.05;43.83
69335;SHT31;56477;52.742;15.242;2023-06-22T15:18:13;30.19;42.66
69335;SHT31;56477;52.742;15.242;2023-06-22T15:20:39;30.18;42.47
69335;SHT31;56477;52.742;15.242;2023-06-22T15:23:06;30.13;42.33
69335;SHT31;56477;52.742;15.242;2023-06-22T15:25:32;30.16;43.09